sensor_id;sensor_type;location;lat;lon;timestamp;P1;durP1;ratioP1;P2;durP2;ratioP2
52974;SDS011;38839;45.186;5.720;2022-11-03T19:10:04;7.30;;;4.53;;
52974;SDS011;38839;45.186;5.720;2022-11-03T19:12:32;8.98;;;5.00;;
52974;SDS011;38839;45.186;5.720;2022-11-03T19:14:57;10.82;;;4.72;;
52974;SDS011;38839;45.186;5.720;2022-11-03T19:17:23;7.68;;;5.10;;
52974;SDS011;38839;45.186;5.720;2022-11-03T19:19:49;10.95;;;6.38;;
52974;SDS011;38839;45.186;5.720;2022-11-03T19:22:16;9.55;;;6.32;;
52974;SDS011;38839;45.186;5.720;2022-11-03T19:24:44;7.15;;;5.00;;
52974;SDS011;38839;45.186;5.720;2022-11-03T19:27:16;5.43;;;4.40;;
52974;SDS011;38839;45.186;5.720;2022-11-03T19:29:49;7.80;;;4.38;;
52974;SDS011;38839;45.186;5.720;2022-11-03T19:32:27;8.13;;;5.05;;
52974;SDS011;38839;45.186;5.720;2022-11-03T19:34:58;8.05;;;5.13;;
52974;SDS011;38839;45.186;5.720;2022-11-03T19:37:27;6.72;;;4.78;;
52974;SDS011;38839;45.186;5.720;2022-11-03T19:39:55;7.75;;;4.90;;
52974;SDS011;38839;45.186;5.720;2022-11-03T19:42:22;7.20;;;5.50;;
52974;SDS011;38839;45.186;5.720;2022-11-03T19:45:01;6.97;;;5.40;;
52974;SDS011;38839;45.186;5.720;2022-11-03T19:47:32;6.75;;;5.10;;
52974;SDS011;38839;45.186;5.720;2022-11-03T19:50:01;6.07;;;4.60;;
52974;SDS011;38839;45.186;5.720;2022-11-03T19:52:28;7.22;;;4.45;;
52974;SDS011;38839;45.186;5.720;2022-11-03T19:54:55;9.95;;;4.93;;
52974;SDS011;38839;45.186;5.720;2022-11-03T19:57:22;7.25;;;5.13;;
52974;SDS011;38839;45.186;5.720;2022-11-03T19:59:48;5.85;;;4.43;;
52974;SDS011;38839;45.186;5.720;2022-11-03T20:02:14;6.93;;;5.10;;
52974;SDS011;38839;45.186;5.720;2022-11-03T20:04:39;7.28;;;4.53;;
52974;SDS011;38839;45.186;5.720;2022-11-03T20:07:11;7.80;;;4.57;;
52974;SDS011;38839;45.186;5.720;2022-11-03T20:09:38;6.07;;;4.72;;
52974;SDS011;38839;45.186;5.720;2022-11-03T20:12:04;6.13;;;4.30;;
52974;SDS011;38839;45.186;5.720;2022-11-03T20:14:31;5.57;;;4.60;;
52974;SDS011;38839;45.186;5.720;2022-11-03T20:16:58;4.88;;;3.97;;
52974;SDS011;38839;45.186;5.720;2022-11-03T20:19:34;6.15;;;3.83;;
52974;SDS011;38839;45.186;5.720;2022-11-03T20:22:00;7.22;;;4.45;;
52974;SDS011;38839;45.186;5.720;2022-11-03T20:24:26;7.13;;;4.65;;
52974;SDS011;38839;45.186;5.720;2022-11-03T20:26:51;6.38;;;4.93;;
52974;SDS011;38839;45.186;5.720;2022-11-03T20:29:20;9.05;;;4.53;;
52974;SDS011;38839;45.186;5.720;2022-11-03T20:31:45;6.28;;;4.50;;
52974;SDS011;38839;45.186;5.720;2022-11-03T20:34:12;7.22;;;5.15;;
52974;SDS011;38839;45.186;5.720;2022-11-03T20:36:38;7.30;;;5.45;;
52974;SDS011;38839;45.186;5.720;2022-11-03T20:39:04;7.35;;;5.22;;
52974;SDS011;38839;45.186;5.720;2022-11-03T20:41:30;10.57;;;5.72;;
52974;SDS011;38839;45.186;5.720;2022-11-03T20:43:56;7.30;;;5.05;;
52974;SDS011;38839;45.186;5.720;2022-11-03T20:46:24;8.15;;;4.97;;
52974;SDS011;38839;45.186;5.720;2022-11-03T20:48:52;7.03;;;4.47;;
52974;SDS011;38839;45.186;5.720;2022-11-03T20:51:23;6.75;;;5.15;;
52974;SDS011;38839;45.186;5.720;2022-11-03T20:53:54;5.68;;;3.97;;
52974;SDS011;38839;45.186;5.720;2022-11-03T20:56:21;6.38;;;4.95;;
52974;SDS011;38839;45.186;5.720;2022-11-03T20:58:48;5.57;;;4.70;;
52974;SDS011;38839;45.186;5.720;2022-11-03T21:01:19;7.93;;;5.07;;
52974;SDS011;38839;45.186;5.720;2022-11-03T21:03:48;6.80;;;3.97;;
52974;SDS011;38839;45.186;5.720;2022-11-03T21:06:14;5.05;;;3.63;;
52974;SDS011;38839;45.186;5.720;2022-11-03T21:08:42;3.97;;;2.70;;
52974;SDS011;38839;45.186;5.720;2022-11-03T21:11:16;3.20;;;2.70;;
52974;SDS011;38839;45.186;5.720;2022-11-03T21:13:56;4.75;;;2.67;;
52974;SDS011;38839;45.186;5.720;2022-11-03T21:16:24;6.82;;;3.30;;
52974;SDS011;38839;45.186;5.720;2022-11-03T21:19:12;8.30;;;3.38;;
52974;SDS011;38839;45.186;5.720;2022-11-03T21:22:14;5.57;;;3.40;;
52974;SDS011;38839;45.186;5.720;2022-11-03T21:24:45;4.72;;;3.38;;
52974;SDS011;38839;45.186;5.720;2022-11-03T21:27:11;4.55;;;3.25;;
52974;SDS011;38839;45.186;5.720;2022-11-03T21:29:38;4.57;;;2.75;;
52974;SDS011;38839;45.186;5.720;2022-11-03T21:32:05;3.85;;;2.85;;
52974;SDS011;38839;45.186;5.720;2022-11-03T21:34:32;4.60;;;3.13;;
52974;SDS011;38839;45.186;5.720;2022-11-03T21:36:57;5.95;;;3.20;;
52974;SDS011;38839;45.186;5.720;2022-11-03T21:39:22;5.32;;;3.80;;
52974;SDS011;38839;45.186;5.720;2022-11-03T21:41:48;7.70;;;3.83;;
52974;SDS011;38839;45.186;5.720;2022-11-03T21:44:35;5.88;;;3.72;;
52974;SDS011;38839;45.186;5.720;2022-11-03T21:47:01;7.35;;;3.53;;
52974;SDS011;38839;45.186;5.720;2022-11-03T21:49:28;5.82;;;3.17;;
52974;SDS011;38839;45.186;5.720;2022-11-03T21:52:12;3.53;;;2.38;;
52974;SDS011;38839;45.186;5.720;2022-11-03T21:54:40;4.10;;;2.03;;
52974;SDS011;38839;45.186;5.720;2022-11-03T21:57:07;2.40;;;1.60;;
52974;SDS011;38839;45.186;5.720;2022-11-03T21:59:34;1.65;;;1.00;;
52974;SDS011;38839;45.186;5.720;2022-11-03T22:02:00;2.10;;;1.02;;
52974;SDS011;38839;45.186;5.720;2022-11-03T22:04:26;0.70;;;0.50;;
52974;SDS011;38839;45.186;5.720;2022-11-03T22:06:55;1.77;;;0.70;;
52974;SDS011;38839;45.186;5.720;2022-11-03T22:09:22;2.13;;;0.60;;
52974;SDS011;38839;45.186;5.720;2022-11-03T22:11:48;0.70;;;0.60;;
52974;SDS011;38839;45.186;5.720;2022-11-03T22:14:14;1.05;;;0.60;;
52974;SDS011;38839;45.186;5.720;2022-11-03T22:16:40;0.90;;;0.50;;
52974;SDS011;38839;45.186;5.720;2022-11-03T22:19:07;0.77;;;0.60;;
52974;SDS011;38839;45.186;5.720;2022-11-03T22:22:05;1.33;;;0.55;;
52974;SDS011;38839;45.186;5.720;2022-11-03T22:24:53;0.98;;;0.60;;
52974;SDS011;38839;45.186;5.720;2022-11-03T22:27:37;1.90;;;0.60;;
52974;SDS011;38839;45.186;5.720;2022-11-03T22:30:03;1.02;;;0.50;;
52974;SDS011;38839;45.186;5.720;2022-11-03T22:32:51;0.60;;;0.47;;
52974;SDS011;38839;45.186;5.720;2022-11-03T22:35:18;0.57;;;0.50;;
52974;SDS011;38839;45.186;5.720;2022-11-03T22:38:08;1.83;;;0.40;;
52974;SDS011;38839;45.186;5.720;2022-11-03T22:40:36;0.47;;;0.30;;
52974;SDS011;38839;45.186;5.720;2022-11-03T22:43:20;1.60;;;0.40;;
52974;SDS011;38839;45.186;5.720;2022-11-03T22:46:04;0.85;;;0.57;;
52974;SDS011;38839;45.186;5.720;2022-11-03T22:48:30;0.55;;;0.25;;
52974;SDS011;38839;45.186;5.720;2022-11-03T22:51:00;0.80;;;0.43;;
52974;SDS011;38839;45.186;5.720;2022-11-03T22:53:26;1.73;;;0.35;;
52974;SDS011;38839;45.186;5.720;2022-11-03T22:56:11;0.65;;;0.40;;
52974;SDS011;38839;45.186;5.720;2022-11-03T22:58:37;0.93;;;0.55;;
52974;SDS011;38839;45.186;5.720;2022-11-03T23:01:07;0.60;;;0.50;;
52974;SDS011;38839;45.186;5.720;2022-11-03T23:03:40;0.55;;;0.50;;
52974;SDS011;38839;45.186;5.720;2022-11-03T23:06:08;1.05;;;0.45;;
52974;SDS011;38839;45.186;5.720;2022-11-03T23:08:36;1.33;;;0.55;;
52974;SDS011;38839;45.186;5.720;2022-11-03T23:13:30;0.73;;;0.40;;
52974;SDS011;38839;45.186;5.720;2022-11-03T23:15:55;2.83;;;0.85;;
52974;SDS011;38839;45.186;5.720;2022-11-03T23:18:21;1.02;;;0.40;;
52974;SDS011;38839;45.186;5.720;2022-11-03T23:21:06;0.65;;;0.20;;
52974;SDS011;38839;45.186;5.720;2022-11-03T23:23:32;3.30;;;0.50;;
52974;SDS011;38839;45.186;5.720;2022-11-03T23:26:17;0.82;;;0.60;;
52974;SDS011;38839;45.186;5.720;2022-11-03T23:28:43;0.85;;;0.60;;
52974;SDS011;38839;45.186;5.720;2022-11-03T23:31:09;2.00;;;0.38;;
52974;SDS011;38839;45.186;5.720;2022-11-03T23:33:36;0.88;;;0.30;;
52974;SDS011;38839;45.186;5.720;2022-11-03T23:36:06;0.45;;;0.40;;
52974;SDS011;38839;45.186;5.720;2022-11-03T23:38:35;0.68;;;0.25;;
52974;SDS011;38839;45.186;5.720;2022-11-03T23:41:07;0.55;;;0.40;;
52974;SDS011;38839;45.186;5.720;2022-11-03T23:43:37;1.83;;;0.57;;
52974;SDS011;38839;45.186;5.720;2022-11-03T23:46:03;0.38;;;0.22;;
52974;SDS011;38839;45.186;5.720;2022-11-03T23:48:48;0.30;;;0.30;;
52974;SDS011;38839;45.186;5.720;2022-11-03T23:51:18;0.55;;;0.20;;
52974;SDS011;38839;45.186;5.720;2022-11-03T23:53:46;1.25;;;0.20;;
52974;SDS011;38839;45.186;5.720;2022-11-03T23:56:12;0.73;;;0.25;;
52974;SDS011;38839;45.186;5.720;2022-11-03T23:58:59;0.50;;;0.30;;
